10liff — V2CH5 — position and weather

sailwx.info

Track history (hours):
 
Tides and Currents Weather Stations Pressure Air Temp Water Temp Dewpoint Dewpoint Depression Visibility Wind Speed Wind Dir Waves Ship Positions

10liff

Last reported at 2018-Feb-25 12:00 UTC. Time now 2018-Feb-25 12:08 UTC.
Position N 34°36' E 135°21'.

Length 143 m; draft 6 m.

Type: Ship. MMSI: 304939206.

Date/timePositionNaut miles runAvg speedWind from/ knotsBaromVisibWave heightAir tempDewpointWater temp
2018-Feb-25 12:00N 34°36' E 135°21'815.3
2018-Feb-25 11:30N 34°31' E 135°14'815.5
2018-Feb-25 11:00N 34°26' E 135°07'815.3
2018-Feb-25 10:30N 34°20' E 135°01'714.5
2018-Feb-25 10:01N 34°13' E 134°59'815.5
2018-Feb-25 09:30N 34°05' E 134°59'815.6
2018-Feb-25 09:01N 33°57' E 134°59'714.8
2018-Feb-25 08:30N 33°50' E 135°02'915.9
2018-Feb-25 07:58N 33°44' E 135°09'916.2
2018-Feb-25 07:26N 33°37' E 135°16'5413.5
2018-Feb-25 03:28N 33°44' E 136°19'2017.0
2018-Feb-25 02:17N 33°58' E 136°37'617.0
2018-Feb-25 01:56N 34°02' E 136°43'2116.6
2018-Feb-25 00:41N 34°17' E 137°00'615.5
2018-Feb-25 00:16N 34°23' E 137°02'416.1
2018-Feb-25 00:00N 34°27' E 137°02'1012.8
2018-Feb-24 23:13N 34°36' E 136°56'415.9
2018-Feb-24 22:58N 34°38' E 136°53'815.8
2018-Feb-24 22:28N 34°45' E 136°47'715.8
2018-Feb-24 22:00N 34°52' E 136°46'714.5
2018-Feb-24 21:30N 34°59' E 136°47'2 4.2
2018-Feb-24 21:00N 35°01' E 136°48'0 0.0
2018-Feb-24 20:25N 35°01' E 136°48'0 0.0
2018-Feb-24 19:55N 35°01' E 136°48'0 0.0
2018-Feb-24 19:28N 35°01' E 136°48'0 0.0
2018-Feb-24 18:58N 35°01' E 136°48'0 0.0
2018-Feb-24 18:25N 35°01' E 136°48'0 0.0
2018-Feb-24 17:58N 35°01' E 136°48'0 0.0
2018-Feb-24 17:28N 35°01' E 136°48'0 0.0
2018-Feb-24 16:55N 35°01' E 136°48'0 0.0
2018-Feb-24 16:25N 35°01' E 136°48'0 0.0
2018-Feb-24 15:55N 35°01' E 136°48'0 0.0
2018-Feb-24 15:28N 35°01' E 136°48'0 0.0
2018-Feb-24 14:52N 35°01' E 136°48'0 0.0
2018-Feb-24 14:28N 35°01' E 136°48'0 0.0
2018-Feb-24 13:58N 35°01' E 136°48'0 0.0
2018-Feb-24 13:28N 35°01' E 136°48'0 0.0
2018-Feb-24 12:55N 35°01' E 136°48'0 0.0
2018-Feb-24 12:25N 35°01' E 136°48'0 0.0
2018-Feb-24 11:58N 35°01' E 136°48'0 0.5
2018-Feb-24 11:30N 35°01' E 136°48'4 7.0
2018-Feb-24 11:00N 34°58' E 136°46'713.8
2018-Feb-24 10:30N 34°51' E 136°46'714.8
2018-Feb-24 10:00N 34°44' E 136°49'714.8
2018-Feb-24 09:31N 34°38' E 136°54'713.8
2018-Feb-24 09:00N 34°34' E 137°00'813.7
2018-Feb-24 08:26N 34°32' E 137°10'715.7
2018-Feb-24 07:59N 34°32' E 137°18'1914.8
2018-Feb-24 06:41N 34°32' E 137°42'514.8
2018-Feb-24 06:20N 34°32' E 137°48'514.6
2018-Feb-24 06:00N 34°32' E 137°54'714.5
2018-Feb-24 05:30N 34°32' E 138°03'814.0
2018-Feb-24 04:56N 34°32' E 138°12'614.1
2018-Feb-24 04:30N 34°34' E 138°19'815.1
2018-Feb-24 04:00N 34°41' E 138°23'714.8
2018-Feb-24 03:31N 34°48' E 138°27'714.5
2018-Feb-24 03:00N 34°54' E 138°31'714.7
2018-Feb-24 02:30N 35°01' E 138°33'2 4.4
2018-Feb-24 02:00N 35°02' E 138°31'0 0.3
2018-Feb-24 01:29N 35°02' E 138°31'0 0.0
2018-Feb-24 00:59N 35°02' E 138°31'0 0.0
2018-Feb-24 00:29N 35°02' E 138°31'0 0.0
2018-Feb-23 23:59N 35°02' E 138°31'0 0.0
2018-Feb-23 23:29N 35°02' E 138°31'0 0.0
2018-Feb-23 22:59N 35°02' E 138°31'0 0.0
2018-Feb-23 22:29N 35°02' E 138°31'1 1.7
2018-Feb-23 22:00N 35°02' E 138°31'4 7.6
2018-Feb-23 21:30N 34°59' E 138°35'815.2
2018-Feb-23 21:00N 34°52' E 138°34'714.7
2018-Feb-23 20:30N 34°45' E 138°31'3 3.7
2018-Feb-23 19:43N 34°42' E 138°30'0 0.7
2018-Feb-23 19:25N 34°42' E 138°30'0 0.7
2018-Feb-23 18:58N 34°42' E 138°30'0 0.6
2018-Feb-23 18:28N 34°43' E 138°30'0 0.3
2018-Feb-23 17:52N 34°43' E 138°30'0 0.3
2018-Feb-23 17:28N 34°43' E 138°30'0 0.4
2018-Feb-23 16:55N 34°43' E 138°30'0 0.7
2018-Feb-23 16:19N 34°44' E 138°30'0 0.9
2018-Feb-23 15:58N 34°44' E 138°30'1 1.0
2018-Feb-23 15:25N 34°45' E 138°30'0 0.8
2018-Feb-23 14:55N 34°45' E 138°29'0 0.8
2018-Feb-23 14:25N 34°45' E 138°29'1 1.8
2018-Feb-23 14:00N 34°45' E 138°30'713.2
2018-Feb-23 13:30N 34°41' E 138°37'815.4
2018-Feb-23 13:00N 34°36' E 138°44'714.9
2018-Feb-23 12:30N 34°33' E 138°52'814.9
2018-Feb-23 12:00N 34°36' E 139°00'1117.1
2018-Feb-23 11:21N 34°44' E 139°09'616.5
2018-Feb-23 11:00N 34°48' E 139°15'815.9
2018-Feb-23 10:29N 34°53' E 139°23'816.1
2018-Feb-23 10:00N 34°58' E 139°30'816.4
2018-Feb-23 09:30N 35°03' E 139°38'815.8
2018-Feb-23 09:01N 35°09' E 139°45'612.7
2018-Feb-23 08:30N 35°15' E 139°46'612.0
2018-Feb-23 08:00N 35°20' E 139°42'612.1
2018-Feb-23 07:30N 35°26' E 139°42'1 2.4
2018-Feb-23 07:01N 35°27' E 139°41'0 0.0
2018-Feb-23 06:30N 35°27' E 139°41'0 0.0
2018-Feb-23 06:01N 35°27' E 139°41'0 0.0
2018-Feb-23 05:31N 35°27' E 139°41'0 0.0
2018-Feb-23 05:00N 35°27' E 139°41'0 0.0
2018-Feb-23 04:28N 35°27' E 139°41'0 0.0
2018-Feb-23 04:00N 35°27' E 139°41'0 0.0
2018-Feb-23 03:28N 35°27' E 139°41'0 0.0
2018-Feb-23 03:01N 35°27' E 139°41'0 0.0
2018-Feb-23 02:31N 35°27' E 139°41'0 0.0
2018-Feb-23 02:01N 35°27' E 139°41'0 0.0
2018-Feb-23 01:30N 35°27' E 139°41'0 0.0
2018-Feb-23 01:01N 35°27' E 139°41'0 0.0
2018-Feb-23 00:31N 35°27' E 139°41'0 0.0
2018-Feb-23 00:00N 35°27' E 139°41'0 0.0
2018-Feb-22 23:28N 35°27' E 139°41'0 0.0
2018-Feb-22 23:00N 35°27' E 139°41'0 0.0
2018-Feb-22 22:28N 35°27' E 139°41'0 0.5
2018-Feb-22 22:01N 35°27' E 139°41'2 4.4
2018-Feb-22 21:30N 35°26' E 139°44'713.0
2018-Feb-22 21:00N 35°29' E 139°50'611.9
2018-Feb-22 20:30N 35°35' E 139°48'1 3.0
2018-Feb-22 20:00N 35°36' E 139°47'0 0.0
2018-Feb-22 19:30N 35°36' E 139°47'0 0.0
2018-Feb-22 19:00N 35°36' E 139°47'0 0.0
2018-Feb-22 18:30N 35°36' E 139°47'0 0.0
2018-Feb-22 18:00N 35°36' E 139°47'0 0.0
2018-Feb-22 17:27N 35°36' E 139°47'0 0.0
2018-Feb-22 17:00N 35°36' E 139°47'0 0.0
2018-Feb-22 16:21N 35°36' E 139°47'0 0.0
2018-Feb-22 15:51N 35°36' E 139°47'0 0.0
2018-Feb-22 15:27N 35°36' E 139°47'0 0.0
2018-Feb-22 15:00N 35°36' E 139°47'0 0.0
2018-Feb-22 14:21N 35°36' E 139°47'0 0.0
2018-Feb-22 13:57N 35°36' E 139°47'0 0.0
2018-Feb-22 13:27N 35°36' E 139°47'0 0.0
2018-Feb-22 13:00N 35°36' E 139°47'0 0.0
2018-Feb-22 12:24N 35°36' E 139°47'0 0.0
2018-Feb-22 12:00N 35°36' E 139°47'0 0.0
2018-Feb-22 11:21N 35°36' E 139°47'0 0.0
2018-Feb-22 10:57N 35°36' E 139°47'0 0.0
2018-Feb-22 10:27N 35°36' E 139°47'0 0.0
2018-Feb-22 09:48N 35°36' E 139°47'0 0.0
2018-Feb-22 09:30N 35°36' E 139°47'0 0.0
2018-Feb-22 08:57N 35°36' E 139°47'0 0.0
2018-Feb-22 08:27N 35°36' E 139°47'0 0.0
2018-Feb-22 08:00N 35°36' E 139°47'0 0.0
2018-Feb-22 07:27N 35°36' E 139°47'0 0.0
2018-Feb-22 06:54N 35°36' E 139°47'0 0.0
2018-Feb-22 06:18N 35°36' E 139°47'0 0.0
2018-Feb-22 05:48N 35°36' E 139°47'0 0.0
2018-Feb-22 05:30N 35°36' E 139°47'0 0.0
2018-Feb-22 04:57N 35°36' E 139°47'0 0.0
2018-Feb-22 04:15N 35°36' E 139°47'0 0.0
2018-Feb-22 04:00N 35°36' E 139°47'0 0.0
2018-Feb-22 03:27N 35°36' E 139°47'0 0.0
2018-Feb-22 02:57N 35°36' E 139°47'0 0.0
2018-Feb-22 02:30N 35°36' E 139°47'0 0.0
2018-Feb-22 01:54N 35°36' E 139°47'0 0.0
2018-Feb-22 01:27N 35°36' E 139°47'0 0.0
2018-Feb-22 01:00N 35°36' E 139°47'0 0.0
2018-Feb-22 00:27N 35°36' E 139°47'0 0.0
2018-Feb-21 23:57N 35°36' E 139°47'0 0.0
2018-Feb-21 23:30N 35°36' E 139°47'0 0.0
2018-Feb-21 22:57N 35°36' E 139°47'0 0.0
2018-Feb-21 22:24N 35°36' E 139°47'0 0.0
2018-Feb-21 21:54N 35°36' E 139°47'0 0.0
2018-Feb-21 21:30N 35°36' E 139°47'0 0.0
2018-Feb-21 21:00N 35°36' E 139°47'0 0.0
2018-Feb-21 20:30N 35°36' E 139°47'0 0.0
2018-Feb-21 20:00N 35°36' E 139°47'0 0.0
2018-Feb-21 19:30N 35°36' E 139°47'0 0.0
2018-Feb-21 18:57N 35°36' E 139°47'0 0.0
2018-Feb-21 18:30N 35°36' E 139°47'0 0.0
2018-Feb-21 17:54N 35°36' E 139°47'0 0.0
2018-Feb-21 17:30N 35°36' E 139°47'0 0.0
2018-Feb-21 16:57N 35°36' E 139°47'0 0.0
2018-Feb-21 16:24N 35°36' E 139°47'0 0.0
2018-Feb-21 16:00N 35°36' E 139°47'0 0.0
2018-Feb-21 15:30N 35°36' E 139°47'0 0.0
2018-Feb-21 15:00N 35°36' E 139°47'0 0.0
2018-Feb-21 14:30N 35°36' E 139°47'0 0.0
2018-Feb-21 13:54N 35°36' E 139°47'0 0.0
2018-Feb-21 13:30N 35°36' E 139°47'0 0.0
2018-Feb-21 12:54N 35°36' E 139°47'0 0.0
2018-Feb-21 12:30N 35°36' E 139°47'0 0.0
2018-Feb-21 12:00N 35°36' E 139°47'0 0.0
2018-Feb-21 11:30N 35°36' E 139°47'0 0.0
2018-Feb-21 11:00N 35°36' E 139°47'0 0.0
2018-Feb-21 10:24N 35°36' E 139°47'0 0.0
2018-Feb-21 10:00N 35°36' E 139°47'0 0.0
2018-Feb-21 09:27N 35°36' E 139°47'0 0.0
2018-Feb-21 08:51N 35°36' E 139°47'0 0.0
2018-Feb-21 08:21N 35°36' E 139°47'0 0.0
2018-Feb-21 07:57N 35°36' E 139°47'0 0.0
2018-Feb-21 07:18N 35°36' E 139°47'0 0.0
2018-Feb-21 06:57N 35°36' E 139°47'1 1.5
2018-Feb-21 06:29N 35°36' E 139°47'3 6.8
2018-Feb-21 05:59N 35°34' E 139°51'1 1.4
2018-Feb-21 05:26N 35°34' E 139°51'0 0.0
2018-Feb-21 04:59N 35°34' E 139°51'0 0.1
2018-Feb-21 04:26N 35°34' E 139°51'0 0.0
2018-Feb-21 03:59N 35°34' E 139°51'0 0.0
2018-Feb-21 03:23N 35°34' E 139°51'0 0.1
2018-Feb-21 02:59N 35°34' E 139°51'0 0.0
2018-Feb-21 02:26N 35°34' E 139°51'0 0.0
2018-Feb-21 01:59N 35°34' E 139°51'0 0.0
2018-Feb-21 01:29N 35°34' E 139°51'0 0.0
2018-Feb-21 00:59N 35°34' E 139°51'0 0.0
2018-Feb-21 00:23N 35°34' E 139°51'0 0.0
2018-Feb-20 23:59N 35°34' E 139°51'0 0.0
2018-Feb-20 23:29N 35°34' E 139°51'0 0.0
2018-Feb-20 22:59N 35°34' E 139°51'0 0.0
2018-Feb-20 22:26N 35°34' E 139°51'0 0.0
2018-Feb-20 21:59N 35°34' E 139°51'0 0.0
2018-Feb-20 21:29N 35°34' E 139°51'0 0.0
2018-Feb-20 20:56N 35°34' E 139°51'0 0.1
2018-Feb-20 20:29N 35°34' E 139°51'0 0.1
2018-Feb-20 19:59N 35°34' E 139°51'0 0.1
2018-Feb-20 19:29N 35°34' E 139°51'0 0.1
2018-Feb-20 18:59N 35°34' E 139°51'0 0.0
2018-Feb-20 18:29N 35°34' E 139°51'0 0.0
2018-Feb-20 17:56N 35°34' E 139°51'0 0.0
2018-Feb-20 17:29N 35°34' E 139°51'0 0.0
2018-Feb-20 16:56N 35°34' E 139°51'0 0.0
2018-Feb-20 16:29N 35°34' E 139°51'0 0.0
2018-Feb-20 15:56N 35°34' E 139°51'0 0.1
2018-Feb-20 15:29N 35°34' E 139°51'0 0.0
2018-Feb-20 14:59N 35°34' E 139°51'1 2.7
2018-Feb-20 14:30N 35°33' E 139°52'611.4
2018-Feb-20 14:01N 35°28' E 139°50'713.2
2018-Feb-20 13:30N 35°22' E 139°45'510.5
2018-Feb-20 13:00N 35°17' E 139°45'611.7
2018-Feb-20 12:31N 35°11' E 139°47'714.0
2018-Feb-20 12:00N 35°05' E 139°43'816.2
2018-Feb-20 11:31N 35°00' E 139°35'816.4
2018-Feb-20 11:00N 34°55' E 139°28'816.2
2018-Feb-20 10:30N 34°49' E 139°20'816.4
2018-Feb-20 10:00N 34°43' E 139°14'815.8
2018-Feb-20 09:30N 34°37' E 139°07'815.5
2018-Feb-20 09:00N 34°32' E 139°00'916.5
2018-Feb-20 08:28N 34°29' E 138°50'817.0
2018-Feb-20 07:59N 34°25' E 138°41'817.1
2018-Feb-20 07:29N 34°22' E 138°32'817.0
2018-Feb-20 07:00N 34°18' E 138°23'816.4
2018-Feb-20 06:29N 34°15' E 138°13'916.1
2018-Feb-20 05:56N 34°11' E 138°03'  
2018-Feb-17 01:22N 24°19' E 118°42'514.0
2018-Feb-17 01:00N 24°15' E 118°38'713.8
2018-Feb-17 00:30N 24°10' E 118°32'714.1
2018-Feb-17 00:00N 24°05' E 118°27'714.2
2018-Feb-16 23:30N 24°01' E 118°21'714.3
2018-Feb-16 22:59N 23°56' E 118°15'714.1
2018-Feb-16 22:29N 23°51' E 118°09'813.9
2018-Feb-16 21:56N 23°46' E 118°03'1213.9
2018-Feb-16 21:04N 23°38' E 117°53'114.0
2018-Feb-16 21:00N 23°37' E 117°53'713.7
2018-Feb-16 20:30N 23°32' E 117°47'713.3
2018-Feb-16 20:00N 23°28' E 117°41'713.7
2018-Feb-16 19:30N 23°24' E 117°36'713.6
2018-Feb-16 18:59N 23°19' E 117°31'714.1
2018-Feb-16 18:29N 23°15' E 117°24'714.9
2018-Feb-16 18:00N 23°10' E 117°18'  
Track history (hours):
 
Tides and Currents Weather Stations Pressure Air Temp Water Temp Dewpoint Dewpoint Depression Visibility Wind Speed Wind Dir Waves Ship Positions

10liff

Last reported at 2018-Feb-25 12:00 UTC. Time now 2018-Feb-25 12:08 UTC.
Position N 34°36' E 135°21'.

Length 143 m; draft 6 m.

Type: Ship. MMSI: 304939206.

Date/timePositionNaut miles runAvg speedWind from/ knotsBaromVisibWave heightAir tempDewpointWater temp
2018-Feb-25 12:00N 34°36' E 135°21'815.3
2018-Feb-25 11:30N 34°31' E 135°14'815.5
2018-Feb-25 11:00N 34°26' E 135°07'815.3
2018-Feb-25 10:30N 34°20' E 135°01'714.5
2018-Feb-25 10:01N 34°13' E 134°59'815.5
2018-Feb-25 09:30N 34°05' E 134°59'815.6
2018-Feb-25 09:01N 33°57' E 134°59'714.8
2018-Feb-25 08:30N 33°50' E 135°02'915.9
2018-Feb-25 07:58N 33°44' E 135°09'916.2
2018-Feb-25 07:26N 33°37' E 135°16'5413.5
2018-Feb-25 03:28N 33°44' E 136°19'2017.0
2018-Feb-25 02:17N 33°58' E 136°37'617.0
2018-Feb-25 01:56N 34°02' E 136°43'2116.6
2018-Feb-25 00:41N 34°17' E 137°00'615.5
2018-Feb-25 00:16N 34°23' E 137°02'416.1
2018-Feb-25 00:00N 34°27' E 137°02'1012.8
2018-Feb-24 23:13N 34°36' E 136°56'415.9
2018-Feb-24 22:58N 34°38' E 136°53'815.8
2018-Feb-24 22:28N 34°45' E 136°47'715.8
2018-Feb-24 22:00N 34°52' E 136°46'714.5
2018-Feb-24 21:30N 34°59' E 136°47'2 4.2
2018-Feb-24 21:00N 35°01' E 136°48'0 0.0
2018-Feb-24 20:25N 35°01' E 136°48'0 0.0
2018-Feb-24 19:55N 35°01' E 136°48'0 0.0
2018-Feb-24 19:28N 35°01' E 136°48'0 0.0
2018-Feb-24 18:58N 35°01' E 136°48'0 0.0
2018-Feb-24 18:25N 35°01' E 136°48'0 0.0
2018-Feb-24 17:58N 35°01' E 136°48'0 0.0
2018-Feb-24 17:28N 35°01' E 136°48'0 0.0
2018-Feb-24 16:55N 35°01' E 136°48'0 0.0
2018-Feb-24 16:25N 35°01' E 136°48'0 0.0
2018-Feb-24 15:55N 35°01' E 136°48'0 0.0
2018-Feb-24 15:28N 35°01' E 136°48'0 0.0
2018-Feb-24 14:52N 35°01' E 136°48'0 0.0
2018-Feb-24 14:28N 35°01' E 136°48'0 0.0
2018-Feb-24 13:58N 35°01' E 136°48'0 0.0
2018-Feb-24 13:28N 35°01' E 136°48'0 0.0
2018-Feb-24 12:55N 35°01' E 136°48'0 0.0
2018-Feb-24 12:25N 35°01' E 136°48'0 0.0
2018-Feb-24 11:58N 35°01' E 136°48'0 0.5
2018-Feb-24 11:30N 35°01' E 136°48'4 7.0
2018-Feb-24 11:00N 34°58' E 136°46'713.8
2018-Feb-24 10:30N 34°51' E 136°46'714.8
2018-Feb-24 10:00N 34°44' E 136°49'714.8
2018-Feb-24 09:31N 34°38' E 136°54'713.8
2018-Feb-24 09:00N 34°34' E 137°00'813.7
2018-Feb-24 08:26N 34°32' E 137°10'715.7
2018-Feb-24 07:59N 34°32' E 137°18'1914.8
2018-Feb-24 06:41N 34°32' E 137°42'514.8
2018-Feb-24 06:20N 34°32' E 137°48'514.6
2018-Feb-24 06:00N 34°32' E 137°54'714.5
2018-Feb-24 05:30N 34°32' E 138°03'814.0
2018-Feb-24 04:56N 34°32' E 138°12'614.1
2018-Feb-24 04:30N 34°34' E 138°19'815.1
2018-Feb-24 04:00N 34°41' E 138°23'714.8
2018-Feb-24 03:31N 34°48' E 138°27'714.5
2018-Feb-24 03:00N 34°54' E 138°31'714.7
2018-Feb-24 02:30N 35°01' E 138°33'2 4.4
2018-Feb-24 02:00N 35°02' E 138°31'0 0.3
2018-Feb-24 01:29N 35°02' E 138°31'0 0.0
2018-Feb-24 00:59N 35°02' E 138°31'0 0.0
2018-Feb-24 00:29N 35°02' E 138°31'0 0.0
2018-Feb-23 23:59N 35°02' E 138°31'0 0.0
2018-Feb-23 23:29N 35°02' E 138°31'0 0.0
2018-Feb-23 22:59N 35°02' E 138°31'0 0.0
2018-Feb-23 22:29N 35°02' E 138°31'1 1.7
2018-Feb-23 22:00N 35°02' E 138°31'4 7.6
2018-Feb-23 21:30N 34°59' E 138°35'815.2
2018-Feb-23 21:00N 34°52' E 138°34'714.7
2018-Feb-23 20:30N 34°45' E 138°31'3 3.7
2018-Feb-23 19:43N 34°42' E 138°30'0 0.7
2018-Feb-23 19:25N 34°42' E 138°30'0 0.7
2018-Feb-23 18:58N 34°42' E 138°30'0 0.6
2018-Feb-23 18:28N 34°43' E 138°30'0 0.3
2018-Feb-23 17:52N 34°43' E 138°30'0 0.3
2018-Feb-23 17:28N 34°43' E 138°30'0 0.4
2018-Feb-23 16:55N 34°43' E 138°30'0 0.7
2018-Feb-23 16:19N 34°44' E 138°30'0 0.9
2018-Feb-23 15:58N 34°44' E 138°30'1 1.0
2018-Feb-23 15:25N 34°45' E 138°30'0 0.8
2018-Feb-23 14:55N 34°45' E 138°29'0 0.8
2018-Feb-23 14:25N 34°45' E 138°29'1 1.8
2018-Feb-23 14:00N 34°45' E 138°30'713.2
2018-Feb-23 13:30N 34°41' E 138°37'815.4
2018-Feb-23 13:00N 34°36' E 138°44'714.9
2018-Feb-23 12:30N 34°33' E 138°52'814.9
2018-Feb-23 12:00N 34°36' E 139°00'1117.1
2018-Feb-23 11:21N 34°44' E 139°09'616.5
2018-Feb-23 11:00N 34°48' E 139°15'815.9
2018-Feb-23 10:29N 34°53' E 139°23'816.1
2018-Feb-23 10:00N 34°58' E 139°30'816.4
2018-Feb-23 09:30N 35°03' E 139°38'815.8
2018-Feb-23 09:01N 35°09' E 139°45'612.7
2018-Feb-23 08:30N 35°15' E 139°46'612.0
2018-Feb-23 08:00N 35°20' E 139°42'612.1
2018-Feb-23 07:30N 35°26' E 139°42'1 2.4
2018-Feb-23 07:01N 35°27' E 139°41'0 0.0
2018-Feb-23 06:30N 35°27' E 139°41'0 0.0
2018-Feb-23 06:01N 35°27' E 139°41'0 0.0
2018-Feb-23 05:31N 35°27' E 139°41'0 0.0
2018-Feb-23 05:00N 35°27' E 139°41'0 0.0
2018-Feb-23 04:28N 35°27' E 139°41'0 0.0
2018-Feb-23 04:00N 35°27' E 139°41'0 0.0
2018-Feb-23 03:28N 35°27' E 139°41'0 0.0
2018-Feb-23 03:01N 35°27' E 139°41'0 0.0
2018-Feb-23 02:31N 35°27' E 139°41'0 0.0
2018-Feb-23 02:01N 35°27' E 139°41'0 0.0
2018-Feb-23 01:30N 35°27' E 139°41'0 0.0
2018-Feb-23 01:01N 35°27' E 139°41'0 0.0
2018-Feb-23 00:31N 35°27' E 139°41'0 0.0
2018-Feb-23 00:00N 35°27' E 139°41'0 0.0
2018-Feb-22 23:28N 35°27' E 139°41'0 0.0
2018-Feb-22 23:00N 35°27' E 139°41'0 0.0
2018-Feb-22 22:28N 35°27' E 139°41'0 0.5
2018-Feb-22 22:01N 35°27' E 139°41'2 4.4
2018-Feb-22 21:30N 35°26' E 139°44'713.0
2018-Feb-22 21:00N 35°29' E 139°50'611.9
2018-Feb-22 20:30N 35°35' E 139°48'1 3.0
2018-Feb-22 20:00N 35°36' E 139°47'0 0.0
2018-Feb-22 19:30N 35°36' E 139°47'0 0.0
2018-Feb-22 19:00N 35°36' E 139°47'0 0.0
2018-Feb-22 18:30N 35°36' E 139°47'0 0.0
2018-Feb-22 18:00N 35°36' E 139°47'0 0.0
2018-Feb-22 17:27N 35°36' E 139°47'0 0.0
2018-Feb-22 17:00N 35°36' E 139°47'0 0.0
2018-Feb-22 16:21N 35°36' E 139°47'0 0.0
2018-Feb-22 15:51N 35°36' E 139°47'0 0.0
2018-Feb-22 15:27N 35°36' E 139°47'0 0.0
2018-Feb-22 15:00N 35°36' E 139°47'0 0.0
2018-Feb-22 14:21N 35°36' E 139°47'0 0.0
2018-Feb-22 13:57N 35°36' E 139°47'0 0.0
2018-Feb-22 13:27N 35°36' E 139°47'0 0.0
2018-Feb-22 13:00N 35°36' E 139°47'0 0.0
2018-Feb-22 12:24N 35°36' E 139°47'0 0.0
2018-Feb-22 12:00N 35°36' E 139°47'0 0.0
2018-Feb-22 11:21N 35°36' E 139°47'0 0.0
2018-Feb-22 10:57N 35°36' E 139°47'0 0.0
2018-Feb-22 10:27N 35°36' E 139°47'0 0.0
2018-Feb-22 09:48N 35°36' E 139°47'0 0.0
2018-Feb-22 09:30N 35°36' E 139°47'0 0.0
2018-Feb-22 08:57N 35°36' E 139°47'0 0.0
2018-Feb-22 08:27N 35°36' E 139°47'0 0.0
2018-Feb-22 08:00N 35°36' E 139°47'0 0.0
2018-Feb-22 07:27N 35°36' E 139°47'0 0.0
2018-Feb-22 06:54N 35°36' E 139°47'0 0.0
2018-Feb-22 06:18N 35°36' E 139°47'0 0.0
2018-Feb-22 05:48N 35°36' E 139°47'0 0.0
2018-Feb-22 05:30N 35°36' E 139°47'0 0.0
2018-Feb-22 04:57N 35°36' E 139°47'0 0.0
2018-Feb-22 04:15N 35°36' E 139°47'0 0.0
2018-Feb-22 04:00N 35°36' E 139°47'0 0.0
2018-Feb-22 03:27N 35°36' E 139°47'0 0.0
2018-Feb-22 02:57N 35°36' E 139°47'0 0.0
2018-Feb-22 02:30N 35°36' E 139°47'0 0.0
2018-Feb-22 01:54N 35°36' E 139°47'0 0.0
2018-Feb-22 01:27N 35°36' E 139°47'0 0.0
2018-Feb-22 01:00N 35°36' E 139°47'0 0.0
2018-Feb-22 00:27N 35°36' E 139°47'0 0.0
2018-Feb-21 23:57N 35°36' E 139°47'0 0.0
2018-Feb-21 23:30N 35°36' E 139°47'0 0.0
2018-Feb-21 22:57N 35°36' E 139°47'0 0.0
2018-Feb-21 22:24N 35°36' E 139°47'0 0.0
2018-Feb-21 21:54N 35°36' E 139°47'0 0.0
2018-Feb-21 21:30N 35°36' E 139°47'0 0.0
2018-Feb-21 21:00N 35°36' E 139°47'0 0.0
2018-Feb-21 20:30N 35°36' E 139°47'0 0.0
2018-Feb-21 20:00N 35°36' E 139°47'0 0.0
2018-Feb-21 19:30N 35°36' E 139°47'0 0.0
2018-Feb-21 18:57N 35°36' E 139°47'0 0.0
2018-Feb-21 18:30N 35°36' E 139°47'0 0.0
2018-Feb-21 17:54N 35°36' E 139°47'0 0.0
2018-Feb-21 17:30N 35°36' E 139°47'0 0.0
2018-Feb-21 16:57N 35°36' E 139°47'0 0.0
2018-Feb-21 16:24N 35°36' E 139°47'0 0.0
2018-Feb-21 16:00N 35°36' E 139°47'0 0.0
2018-Feb-21 15:30N 35°36' E 139°47'0 0.0
2018-Feb-21 15:00N 35°36' E 139°47'0 0.0
2018-Feb-21 14:30N 35°36' E 139°47'0 0.0
2018-Feb-21 13:54N 35°36' E 139°47'0 0.0
2018-Feb-21 13:30N 35°36' E 139°47'0 0.0
2018-Feb-21 12:54N 35°36' E 139°47'0 0.0
2018-Feb-21 12:30N 35°36' E 139°47'0 0.0
2018-Feb-21 12:00N 35°36' E 139°47'0 0.0
2018-Feb-21 11:30N 35°36' E 139°47'0 0.0
2018-Feb-21 11:00N 35°36' E 139°47'0 0.0
2018-Feb-21 10:24N 35°36' E 139°47'0 0.0
2018-Feb-21 10:00N 35°36' E 139°47'0 0.0
2018-Feb-21 09:27N 35°36' E 139°47'0 0.0
2018-Feb-21 08:51N 35°36' E 139°47'0 0.0
2018-Feb-21 08:21N 35°36' E 139°47'0 0.0
2018-Feb-21 07:57N 35°36' E 139°47'0 0.0
2018-Feb-21 07:18N 35°36' E 139°47'0 0.0
2018-Feb-21 06:57N 35°36' E 139°47'1 1.5
2018-Feb-21 06:29N 35°36' E 139°47'3 6.8
2018-Feb-21 05:59N 35°34' E 139°51'1 1.4
2018-Feb-21 05:26N 35°34' E 139°51'0 0.0
2018-Feb-21 04:59N 35°34' E 139°51'0 0.1
2018-Feb-21 04:26N 35°34' E 139°51'0 0.0
2018-Feb-21 03:59N 35°34' E 139°51'0 0.0
2018-Feb-21 03:23N 35°34' E 139°51'0 0.1
2018-Feb-21 02:59N 35°34' E 139°51'0 0.0
2018-Feb-21 02:26N 35°34' E 139°51'0 0.0
2018-Feb-21 01:59N 35°34' E 139°51'0 0.0
2018-Feb-21 01:29N 35°34' E 139°51'0 0.0
2018-Feb-21 00:59N 35°34' E 139°51'0 0.0
2018-Feb-21 00:23N 35°34' E 139°51'0 0.0
2018-Feb-20 23:59N 35°34' E 139°51'0 0.0
2018-Feb-20 23:29N 35°34' E 139°51'0 0.0
2018-Feb-20 22:59N 35°34' E 139°51'0 0.0
2018-Feb-20 22:26N 35°34' E 139°51'0 0.0
2018-Feb-20 21:59N 35°34' E 139°51'0 0.0
2018-Feb-20 21:29N 35°34' E 139°51'0 0.0
2018-Feb-20 20:56N 35°34' E 139°51'0 0.1
2018-Feb-20 20:29N 35°34' E 139°51'0 0.1
2018-Feb-20 19:59N 35°34' E 139°51'0 0.1
2018-Feb-20 19:29N 35°34' E 139°51'0 0.1
2018-Feb-20 18:59N 35°34' E 139°51'0 0.0
2018-Feb-20 18:29N 35°34' E 139°51'0 0.0
2018-Feb-20 17:56N 35°34' E 139°51'0 0.0
2018-Feb-20 17:29N 35°34' E 139°51'0 0.0
2018-Feb-20 16:56N 35°34' E 139°51'0 0.0
2018-Feb-20 16:29N 35°34' E 139°51'0 0.0
2018-Feb-20 15:56N 35°34' E 139°51'0 0.1
2018-Feb-20 15:29N 35°34' E 139°51'0 0.0
2018-Feb-20 14:59N 35°34' E 139°51'1 2.7
2018-Feb-20 14:30N 35°33' E 139°52'611.4
2018-Feb-20 14:01N 35°28' E 139°50'713.2
2018-Feb-20 13:30N 35°22' E 139°45'510.5
2018-Feb-20 13:00N 35°17' E 139°45'611.7
2018-Feb-20 12:31N 35°11' E 139°47'714.0
2018-Feb-20 12:00N 35°05' E 139°43'816.2
2018-Feb-20 11:31N 35°00' E 139°35'816.4
2018-Feb-20 11:00N 34°55' E 139°28'816.2
2018-Feb-20 10:30N 34°49' E 139°20'816.4
2018-Feb-20 10:00N 34°43' E 139°14'815.8
2018-Feb-20 09:30N 34°37' E 139°07'815.5
2018-Feb-20 09:00N 34°32' E 139°00'916.5
2018-Feb-20 08:28N 34°29' E 138°50'817.0
2018-Feb-20 07:59N 34°25' E 138°41'817.1
2018-Feb-20 07:29N 34°22' E 138°32'817.0
2018-Feb-20 07:00N 34°18' E 138°23'816.4
2018-Feb-20 06:29N 34°15' E 138°13'916.1
2018-Feb-20 05:56N 34°11' E 138°03'  
2018-Feb-17 01:22N 24°19' E 118°42'514.0
2018-Feb-17 01:00N 24°15' E 118°38'713.8
2018-Feb-17 00:30N 24°10' E 118°32'714.1
2018-Feb-17 00:00N 24°05' E 118°27'714.2
2018-Feb-16 23:30N 24°01' E 118°21'714.3
2018-Feb-16 22:59N 23°56' E 118°15'714.1
2018-Feb-16 22:29N 23°51' E 118°09'813.9
2018-Feb-16 21:56N 23°46' E 118°03'1213.9
2018-Feb-16 21:04N 23°38' E 117°53'114.0
2018-Feb-16 21:00N 23°37' E 117°53'713.7
2018-Feb-16 20:30N 23°32' E 117°47'713.3
2018-Feb-16 20:00N 23°28' E 117°41'713.7
2018-Feb-16 19:30N 23°24' E 117°36'713.6
2018-Feb-16 18:59N 23°19' E 117°31'714.1
2018-Feb-16 18:29N 23°15' E 117°24'714.9
2018-Feb-16 18:00N 23°10' E 117°18'  

Dump ship's entire track history